Axantha II — CQKN — position and weather

sailwx.info

Track history (hours):
 
Tides and Currents Weather Stations Pressure Air Temp Water Temp Dewpoint Dewpoint Depression Visibility Wind Speed Wind Dir Waves Ship Positions

Axantha II

Last reported at 2016-Aug-09 22:12 UTC. Time now 2016-Aug-31 14:21 UTC.
Position N 45°12' E 013°11'.
Warning: this ship's position is 21 days out of date.

Length 43 m; draft 2.8 m.

Type: Ship. MMSI: 255804580.

Date/timePositionNaut miles runAvg speedWind from/ knotsBaromVisibWave heightAir tempDewpointWater temp
2016-Aug-09 22:12N 45°12' E 013°11'7 9.8
2016-Aug-09 21:32N 45°14' E 013°02'10 9.9
2016-Aug-09 20:33N 45°18' E 012°49'10 9.9
2016-Aug-09 19:33N 45°21' E 012°36'1010.1
2016-Aug-09 18:33N 45°26' E 012°23'2 1.8
2016-Aug-09 17:29N 45°26' E 012°20'0 0.0
2016-Aug-09 16:32N 45°26' E 012°20'0 0.0
2016-Aug-09 15:29N 45°26' E 012°20'0 0.0
2016-Aug-09 14:32N 45°26' E 012°20'0 0.0
2016-Aug-09 13:32N 45°26' E 012°20'0 0.0
2016-Aug-09 12:32N 45°26' E 012°20'0 0.0
2016-Aug-09 11:32N 45°26' E 012°20'0 0.0
2016-Aug-09 10:32N 45°26' E 012°20'0 0.0
2016-Aug-09 09:32N 45°26' E 012°20'0 0.0
2016-Aug-09 08:32N 45°26' E 012°20'1 0.9
2016-Aug-09 07:33N 45°26' E 012°21'5 1.8
2016-Aug-09 04:32N 45°25' E 012°29'0 0.0
2016-Aug-09 03:32N 45°25' E 012°29'5 5.4
2016-Aug-09 02:33N 45°24' E 012°36'1312.6
2016-Aug-09 01:33N 45°18' E 012°52'1712.6
2016-Aug-09 00:11N 45°11' E 013°15'40 5.7
2016-Aug-08 17:11N 44°43' E 013°54'  
2016-Aug-02 18:34N 42°24' E 018°30'5 5.3
2016-Aug-02 17:34N 42°26' E 018°37'4 3.4
2016-Aug-02 16:31N 42°26' E 018°41'0 0.0
2016-Aug-02 15:31N 42°26' E 018°41'0 0.0
2016-Aug-02 14:31N 42°26' E 018°41'0 0.0
2016-Aug-02 13:31N 42°26' E 018°41'0 0.0
2016-Aug-02 12:34N 42°26' E 018°41'0 0.0
2016-Aug-02 11:31N 42°26' E 018°41'0 0.0
2016-Aug-02 10:31N 42°26' E 018°41'0 0.0
2016-Aug-02 09:31N 42°26' E 018°41'0 0.0
2016-Aug-02 08:31N 42°26' E 018°41'0 0.0
2016-Aug-02 07:34N 42°26' E 018°41'0 0.0
2016-Aug-02 06:34N 42°26' E 018°41'0 0.0
2016-Aug-02 04:34N 42°26' E 018°41'0 0.0
2016-Aug-02 03:34N 42°26' E 018°41'0 0.0
2016-Aug-02 02:34N 42°26' E 018°41'0 0.0
2016-Aug-02 01:34N 42°26' E 018°41'0 0.0
2016-Aug-02 00:31N 42°26' E 018°41'0 0.0
2016-Aug-01 23:34N 42°26' E 018°41'0 0.0
2016-Aug-01 22:34N 42°26' E 018°41'0 0.1
2016-Aug-01 21:34N 42°26' E 018°41'0 0.0
2016-Aug-01 20:34N 42°26' E 018°41'0 0.0
2016-Aug-01 19:34N 42°26' E 018°41'0 0.2
2016-Aug-01 18:32N 42°26' E 018°41'0 0.2
2016-Aug-01 17:31N 42°26' E 018°41'0 0.0
2016-Aug-01 16:31N 42°26' E 018°41'0 0.0
2016-Aug-01 15:31N 42°26' E 018°41'0 0.0
2016-Aug-01 14:31N 42°26' E 018°41'0 0.0
2016-Aug-01 13:31N 42°26' E 018°41'0 0.0
2016-Aug-01 12:31N 42°26' E 018°41'0 0.0
2016-Aug-01 11:31N 42°26' E 018°41'0 0.0
2016-Aug-01 10:31N 42°26' E 018°41'0 0.0
2016-Aug-01 09:31N 42°26' E 018°41'0 0.0
2016-Aug-01 08:31N 42°26' E 018°41'0 0.0
2016-Aug-01 07:31N 42°26' E 018°41'0 0.0
2016-Aug-01 06:31N 42°26' E 018°41'203 6.3
2016-Jul-30 22:33N 43°32' E 014°19'  
Track history (hours):
 
Tides and Currents Weather Stations Pressure Air Temp Water Temp Dewpoint Dewpoint Depression Visibility Wind Speed Wind Dir Waves Ship Positions

Axantha II

Last reported at 2016-Aug-09 22:12 UTC. Time now 2016-Aug-31 14:21 UTC.
Position N 45°12' E 013°11'.
Warning: this ship's position is 21 days out of date.

Length 43 m; draft 2.8 m.

Type: Ship. MMSI: 255804580.

Date/timePositionNaut miles runAvg speedWind from/ knotsBaromVisibWave heightAir tempDewpointWater temp
2016-Aug-09 22:12N 45°12' E 013°11'7 9.8
2016-Aug-09 21:32N 45°14' E 013°02'10 9.9
2016-Aug-09 20:33N 45°18' E 012°49'10 9.9
2016-Aug-09 19:33N 45°21' E 012°36'1010.1
2016-Aug-09 18:33N 45°26' E 012°23'2 1.8
2016-Aug-09 17:29N 45°26' E 012°20'0 0.0
2016-Aug-09 16:32N 45°26' E 012°20'0 0.0
2016-Aug-09 15:29N 45°26' E 012°20'0 0.0
2016-Aug-09 14:32N 45°26' E 012°20'0 0.0
2016-Aug-09 13:32N 45°26' E 012°20'0 0.0
2016-Aug-09 12:32N 45°26' E 012°20'0 0.0
2016-Aug-09 11:32N 45°26' E 012°20'0 0.0
2016-Aug-09 10:32N 45°26' E 012°20'0 0.0
2016-Aug-09 09:32N 45°26' E 012°20'0 0.0
2016-Aug-09 08:32N 45°26' E 012°20'1 0.9
2016-Aug-09 07:33N 45°26' E 012°21'5 1.8
2016-Aug-09 04:32N 45°25' E 012°29'0 0.0
2016-Aug-09 03:32N 45°25' E 012°29'5 5.4
2016-Aug-09 02:33N 45°24' E 012°36'1312.6
2016-Aug-09 01:33N 45°18' E 012°52'1712.6
2016-Aug-09 00:11N 45°11' E 013°15'40 5.7
2016-Aug-08 17:11N 44°43' E 013°54'  
2016-Aug-02 18:34N 42°24' E 018°30'5 5.3
2016-Aug-02 17:34N 42°26' E 018°37'4 3.4
2016-Aug-02 16:31N 42°26' E 018°41'0 0.0
2016-Aug-02 15:31N 42°26' E 018°41'0 0.0
2016-Aug-02 14:31N 42°26' E 018°41'0 0.0
2016-Aug-02 13:31N 42°26' E 018°41'0 0.0
2016-Aug-02 12:34N 42°26' E 018°41'0 0.0
2016-Aug-02 11:31N 42°26' E 018°41'0 0.0
2016-Aug-02 10:31N 42°26' E 018°41'0 0.0
2016-Aug-02 09:31N 42°26' E 018°41'0 0.0
2016-Aug-02 08:31N 42°26' E 018°41'0 0.0
2016-Aug-02 07:34N 42°26' E 018°41'0 0.0
2016-Aug-02 06:34N 42°26' E 018°41'0 0.0
2016-Aug-02 04:34N 42°26' E 018°41'0 0.0
2016-Aug-02 03:34N 42°26' E 018°41'0 0.0
2016-Aug-02 02:34N 42°26' E 018°41'0 0.0
2016-Aug-02 01:34N 42°26' E 018°41'0 0.0
2016-Aug-02 00:31N 42°26' E 018°41'0 0.0
2016-Aug-01 23:34N 42°26' E 018°41'0 0.0
2016-Aug-01 22:34N 42°26' E 018°41'0 0.1
2016-Aug-01 21:34N 42°26' E 018°41'0 0.0
2016-Aug-01 20:34N 42°26' E 018°41'0 0.0
2016-Aug-01 19:34N 42°26' E 018°41'0 0.2
2016-Aug-01 18:32N 42°26' E 018°41'0 0.2
2016-Aug-01 17:31N 42°26' E 018°41'0 0.0
2016-Aug-01 16:31N 42°26' E 018°41'0 0.0
2016-Aug-01 15:31N 42°26' E 018°41'0 0.0
2016-Aug-01 14:31N 42°26' E 018°41'0 0.0
2016-Aug-01 13:31N 42°26' E 018°41'0 0.0
2016-Aug-01 12:31N 42°26' E 018°41'0 0.0
2016-Aug-01 11:31N 42°26' E 018°41'0 0.0
2016-Aug-01 10:31N 42°26' E 018°41'0 0.0
2016-Aug-01 09:31N 42°26' E 018°41'0 0.0
2016-Aug-01 08:31N 42°26' E 018°41'0 0.0
2016-Aug-01 07:31N 42°26' E 018°41'0 0.0
2016-Aug-01 06:31N 42°26' E 018°41'203 6.3
2016-Jul-30 22:33N 43°32' E 014°19'  

Dump ship's entire track history